sensor_id;sensor_type;location;lat;lon;timestamp;P1;durP1;ratioP1;P2;durP2;ratioP2
39728;SDS011;25402;42.004;23.088;2023-03-08T00:02:26;8.90;;;5.38;;
39728;SDS011;25402;42.004;23.088;2023-03-08T00:04:52;11.18;;;6.55;;
39728;SDS011;25402;42.004;23.088;2023-03-08T00:07:19;12.15;;;5.60;;
39728;SDS011;25402;42.004;23.088;2023-03-08T00:09:47;11.50;;;5.15;;
39728;SDS011;25402;42.004;23.088;2023-03-08T00:12:13;8.82;;;5.03;;
39728;SDS011;25402;42.004;23.088;2023-03-08T00:14:43;8.45;;;4.13;;
39728;SDS011;25402;42.004;23.088;2023-03-08T00:17:09;10.60;;;4.80;;
39728;SDS011;25402;42.004;23.088;2023-03-08T00:19:37;12.82;;;6.00;;
39728;SDS011;25402;42.004;23.088;2023-03-08T00:22:03;10.40;;;5.85;;
39728;SDS011;25402;42.004;23.088;2023-03-08T00:24:30;11.13;;;5.55;;
39728;SDS011;25402;42.004;23.088;2023-03-08T00:26:58;11.82;;;5.28;;
39728;SDS011;25402;42.004;23.088;2023-03-08T00:29:24;10.55;;;5.25;;
39728;SDS011;25402;42.004;23.088;2023-03-08T00:31:51;12.73;;;6.55;;
39728;SDS011;25402;42.004;23.088;2023-03-08T00:34:17;11.13;;;5.70;;
39728;SDS011;25402;42.004;23.088;2023-03-08T00:36:44;9.75;;;5.82;;
39728;SDS011;25402;42.004;23.088;2023-03-08T00:39:11;11.73;;;5.57;;
39728;SDS011;25402;42.004;23.088;2023-03-08T00:41:38;12.00;;;5.15;;
39728;SDS011;25402;42.004;23.088;2023-03-08T00:44:07;10.80;;;4.40;;
39728;SDS011;25402;42.004;23.088;2023-03-08T00:46:33;10.52;;;4.20;;
39728;SDS011;25402;42.004;23.088;2023-03-08T00:49:00;8.18;;;4.38;;
39728;SDS011;25402;42.004;23.088;2023-03-08T00:51:28;8.40;;;4.32;;
39728;SDS011;25402;42.004;23.088;2023-03-08T00:53:54;9.68;;;5.10;;
39728;SDS011;25402;42.004;23.088;2023-03-08T00:56:21;6.85;;;4.20;;
39728;SDS011;25402;42.004;23.088;2023-03-08T00:58:47;8.20;;;4.53;;
39728;SDS011;25402;42.004;23.088;2023-03-08T01:01:16;12.43;;;4.80;;
39728;SDS011;25402;42.004;23.088;2023-03-08T01:03:43;10.57;;;5.30;;
39728;SDS011;25402;42.004;23.088;2023-03-08T01:06:11;10.13;;;4.55;;
39728;SDS011;25402;42.004;23.088;2023-03-08T01:08:38;9.13;;;4.90;;
39728;SDS011;25402;42.004;23.088;2023-03-08T01:11:14;9.85;;;4.82;;
39728;SDS011;25402;42.004;23.088;2023-03-08T01:13:41;10.30;;;4.88;;
39728;SDS011;25402;42.004;23.088;2023-03-08T01:16:13;8.88;;;5.07;;
39728;SDS011;25402;42.004;23.088;2023-03-08T01:18:41;8.75;;;4.85;;
39728;SDS011;25402;42.004;23.088;2023-03-08T01:21:08;9.82;;;5.10;;
39728;SDS011;25402;42.004;23.088;2023-03-08T01:23:35;10.93;;;5.22;;
39728;SDS011;25402;42.004;23.088;2023-03-08T01:26:02;13.48;;;5.82;;
39728;SDS011;25402;42.004;23.088;2023-03-08T01:28:29;10.52;;;5.60;;
39728;SDS011;25402;42.004;23.088;2023-03-08T01:30:59;15.07;;;5.55;;
39728;SDS011;25402;42.004;23.088;2023-03-08T01:33:26;10.40;;;5.78;;
39728;SDS011;25402;42.004;23.088;2023-03-08T01:35:54;13.68;;;5.50;;
39728;SDS011;25402;42.004;23.088;2023-03-08T01:38:21;10.90;;;5.60;;
39728;SDS011;25402;42.004;23.088;2023-03-08T01:40:48;11.23;;;5.75;;
39728;SDS011;25402;42.004;23.088;2023-03-08T01:43:21;9.10;;;5.30;;
39728;SDS011;25402;42.004;23.088;2023-03-08T01:48:32;11.95;;;5.50;;
39728;SDS011;25402;42.004;23.088;2023-03-08T01:51:02;10.70;;;5.20;;
39728;SDS011;25402;42.004;23.088;2023-03-08T01:53:29;10.30;;;5.80;;
39728;SDS011;25402;42.004;23.088;2023-03-08T01:55:57;10.73;;;5.40;;
39728;SDS011;25402;42.004;23.088;2023-03-08T01:58:23;14.35;;;6.07;;
39728;SDS011;25402;42.004;23.088;2023-03-08T02:00:50;8.90;;;5.63;;
39728;SDS011;25402;42.004;23.088;2023-03-08T02:03:17;14.43;;;5.97;;
39728;SDS011;25402;42.004;23.088;2023-03-08T02:05:44;10.98;;;5.45;;
39728;SDS011;25402;42.004;23.088;2023-03-08T02:08:12;9.27;;;5.85;;
39728;SDS011;25402;42.004;23.088;2023-03-08T02:10:39;9.25;;;5.15;;
39728;SDS011;25402;42.004;23.088;2023-03-08T02:13:06;10.93;;;5.80;;
39728;SDS011;25402;42.004;23.088;2023-03-08T02:15:33;11.68;;;6.10;;
39728;SDS011;25402;42.004;23.088;2023-03-08T02:17:59;11.07;;;5.90;;
39728;SDS011;25402;42.004;23.088;2023-03-08T02:20:27;12.55;;;6.07;;
39728;SDS011;25402;42.004;23.088;2023-03-08T02:23:06;10.50;;;5.25;;
39728;SDS011;25402;42.004;23.088;2023-03-08T02:25:33;10.60;;;5.80;;
39728;SDS011;25402;42.004;23.088;2023-03-08T02:27:59;12.55;;;5.30;;
39728;SDS011;25402;42.004;23.088;2023-03-08T02:30:29;7.53;;;4.85;;
39728;SDS011;25402;42.004;23.088;2023-03-08T02:32:55;9.15;;;4.72;;
39728;SDS011;25402;42.004;23.088;2023-03-08T02:35:22;7.80;;;4.30;;
39728;SDS011;25402;42.004;23.088;2023-03-08T02:37:49;8.75;;;4.70;;
39728;SDS011;25402;42.004;23.088;2023-03-08T02:40:17;10.63;;;4.78;;
39728;SDS011;25402;42.004;23.088;2023-03-08T02:42:44;10.18;;;4.50;;
39728;SDS011;25402;42.004;23.088;2023-03-08T02:45:10;9.68;;;4.85;;
39728;SDS011;25402;42.004;23.088;2023-03-08T02:47:37;21.38;;;6.32;;
39728;SDS011;25402;42.004;23.088;2023-03-08T02:50:04;8.57;;;4.63;;
39728;SDS011;25402;42.004;23.088;2023-03-08T02:52:31;10.20;;;4.85;;
39728;SDS011;25402;42.004;23.088;2023-03-08T02:54:58;9.60;;;5.00;;
39728;SDS011;25402;42.004;23.088;2023-03-08T02:57:26;10.18;;;4.80;;
39728;SDS011;25402;42.004;23.088;2023-03-08T02:59:52;6.78;;;4.50;;
39728;SDS011;25402;42.004;23.088;2023-03-08T03:02:19;9.82;;;4.53;;
39728;SDS011;25402;42.004;23.088;2023-03-08T03:04:45;14.07;;;4.68;;
39728;SDS011;25402;42.004;23.088;2023-03-08T03:07:12;14.43;;;5.38;;
39728;SDS011;25402;42.004;23.088;2023-03-08T03:09:38;11.02;;;5.15;;
39728;SDS011;25402;42.004;23.088;2023-03-08T03:12:05;11.13;;;5.00;;
39728;SDS011;25402;42.004;23.088;2023-03-08T03:14:33;11.40;;;5.35;;
39728;SDS011;25402;42.004;23.088;2023-03-08T03:16:59;12.10;;;4.78;;
39728;SDS011;25402;42.004;23.088;2023-03-08T03:19:26;10.68;;;4.88;;
39728;SDS011;25402;42.004;23.088;2023-03-08T03:21:53;10.02;;;5.00;;
39728;SDS011;25402;42.004;23.088;2023-03-08T03:24:19;11.70;;;6.00;;
39728;SDS011;25402;42.004;23.088;2023-03-08T03:26:46;12.18;;;5.88;;
39728;SDS011;25402;42.004;23.088;2023-03-08T03:29:14;15.52;;;5.97;;
39728;SDS011;25402;42.004;23.088;2023-03-08T03:31:42;17.00;;;5.57;;
39728;SDS011;25402;42.004;23.088;2023-03-08T03:34:09;16.92;;;5.25;;
39728;SDS011;25402;42.004;23.088;2023-03-08T03:36:35;11.27;;;5.65;;
39728;SDS011;25402;42.004;23.088;2023-03-08T03:39:02;16.35;;;6.18;;
39728;SDS011;25402;42.004;23.088;2023-03-08T03:41:29;80.70;;;6.70;;
39728;SDS011;25402;42.004;23.088;2023-03-08T03:43:56;46.42;;;5.72;;
39728;SDS011;25402;42.004;23.088;2023-03-08T03:46:23;73.57;;;8.85;;
39728;SDS011;25402;42.004;23.088;2023-03-08T03:48:51;44.78;;;7.35;;
39728;SDS011;25402;42.004;23.088;2023-03-08T03:51:18;28.95;;;7.90;;
39728;SDS011;25402;42.004;23.088;2023-03-08T03:53:45;92.97;;;9.70;;
39728;SDS011;25402;42.004;23.088;2023-03-08T03:56:13;47.83;;;9.80;;
39728;SDS011;25402;42.004;23.088;2023-03-08T03:58:39;44.08;;;10.30;;
39728;SDS011;25402;42.004;23.088;2023-03-08T04:01:06;55.88;;;10.10;;
39728;SDS011;25402;42.004;23.088;2023-03-08T04:03:33;23.20;;;8.85;;
39728;SDS011;25402;42.004;23.088;2023-03-08T04:06:05;21.30;;;8.15;;
39728;SDS011;25402;42.004;23.088;2023-03-08T04:08:32;18.50;;;8.15;;
39728;SDS011;25402;42.004;23.088;2023-03-08T04:10:58;21.48;;;9.20;;
39728;SDS011;25402;42.004;23.088;2023-03-08T04:13:25;28.55;;;10.18;;
39728;SDS011;25402;42.004;23.088;2023-03-08T04:15:52;36.33;;;16.38;;
39728;SDS011;25402;42.004;23.088;2023-03-08T04:18:18;49.63;;;8.13;;
39728;SDS011;25402;42.004;23.088;2023-03-08T04:20:45;27.52;;;6.43;;
39728;SDS011;25402;42.004;23.088;2023-03-08T04:23:13;25.33;;;5.43;;
39728;SDS011;25402;42.004;23.088;2023-03-08T04:25:40;16.77;;;6.82;;
39728;SDS011;25402;42.004;23.088;2023-03-08T04:28:06;24.73;;;6.00;;
39728;SDS011;25402;42.004;23.088;2023-03-08T04:30:33;17.52;;;7.07;;
39728;SDS011;25402;42.004;23.088;2023-03-08T04:32:59;14.40;;;5.97;;
39728;SDS011;25402;42.004;23.088;2023-03-08T04:35:26;17.35;;;7.35;;
39728;SDS011;25402;42.004;23.088;2023-03-08T04:37:52;16.40;;;5.88;;
39728;SDS011;25402;42.004;23.088;2023-03-08T04:40:20;15.70;;;6.95;;
39728;SDS011;25402;42.004;23.088;2023-03-08T04:42:47;22.10;;;8.55;;
39728;SDS011;25402;42.004;23.088;2023-03-08T04:45:13;24.13;;;7.68;;
39728;SDS011;25402;42.004;23.088;2023-03-08T04:47:40;20.83;;;6.97;;
39728;SDS011;25402;42.004;23.088;2023-03-08T04:50:07;14.68;;;6.10;;
39728;SDS011;25402;42.004;23.088;2023-03-08T04:52:34;16.10;;;6.82;;
39728;SDS011;25402;42.004;23.088;2023-03-08T04:55:00;18.50;;;6.28;;
39728;SDS011;25402;42.004;23.088;2023-03-08T04:57:28;51.20;;;25.58;;
39728;SDS011;25402;42.004;23.088;2023-03-08T04:59:55;44.90;;;24.52;;
39728;SDS011;25402;42.004;23.088;2023-03-08T05:02:22;46.53;;;24.33;;
39728;SDS011;25402;42.004;23.088;2023-03-08T05:04:48;33.45;;;16.02;;
39728;SDS011;25402;42.004;23.088;2023-03-08T05:07:15;24.42;;;11.45;;
39728;SDS011;25402;42.004;23.088;2023-03-08T05:09:41;27.67;;;12.55;;
39728;SDS011;25402;42.004;23.088;2023-03-08T05:12:08;26.23;;;9.43;;
39728;SDS011;25402;42.004;23.088;2023-03-08T05:14:36;20.08;;;7.97;;
39728;SDS011;25402;42.004;23.088;2023-03-08T05:17:03;17.27;;;8.57;;
39728;SDS011;25402;42.004;23.088;2023-03-08T05:19:29;27.17;;;10.43;;
39728;SDS011;25402;42.004;23.088;2023-03-08T05:21:56;36.25;;;10.82;;
39728;SDS011;25402;42.004;23.088;2023-03-08T05:24:22;21.40;;;9.93;;
39728;SDS011;25402;42.004;23.088;2023-03-08T05:26:49;23.27;;;11.05;;
39728;SDS011;25402;42.004;23.088;2023-03-08T05:29:15;48.75;;;9.85;;
39728;SDS011;25402;42.004;23.088;2023-03-08T05:31:43;22.42;;;9.63;;
39728;SDS011;25402;42.004;23.088;2023-03-08T05:34:10;32.28;;;9.45;;
39728;SDS011;25402;42.004;23.088;2023-03-08T05:36:37;60.17;;;12.63;;
39728;SDS011;25402;42.004;23.088;2023-03-08T05:39:03;121.60;;;17.65;;
39728;SDS011;25402;42.004;23.088;2023-03-08T05:41:31;45.22;;;13.38;;
39728;SDS011;25402;42.004;23.088;2023-03-08T05:43:59;35.05;;;10.10;;
39728;SDS011;25402;42.004;23.088;2023-03-08T05:46:25;32.78;;;11.88;;
39728;SDS011;25402;42.004;23.088;2023-03-08T05:48:53;69.47;;;20.73;;
39728;SDS011;25402;42.004;23.088;2023-03-08T05:51:20;45.70;;;13.02;;
39728;SDS011;25402;42.004;23.088;2023-03-08T05:53:46;32.80;;;9.40;;
39728;SDS011;25402;42.004;23.088;2023-03-08T05:56:13;45.40;;;11.07;;
39728;SDS011;25402;42.004;23.088;2023-03-08T05:58:41;19.20;;;7.97;;
39728;SDS011;25402;42.004;23.088;2023-03-08T06:01:09;18.10;;;7.85;;
39728;SDS011;25402;42.004;23.088;2023-03-08T06:03:36;20.75;;;7.43;;
39728;SDS011;25402;42.004;23.088;2023-03-08T06:06:04;16.90;;;7.65;;
39728;SDS011;25402;42.004;23.088;2023-03-08T06:08:31;27.05;;;7.07;;
39728;SDS011;25402;42.004;23.088;2023-03-08T06:10:58;24.50;;;9.65;;
39728;SDS011;25402;42.004;23.088;2023-03-08T06:13:25;21.90;;;9.57;;
39728;SDS011;25402;42.004;23.088;2023-03-08T06:15:53;18.02;;;8.20;;
39728;SDS011;25402;42.004;23.088;2023-03-08T06:18:20;21.58;;;8.25;;
39728;SDS011;25402;42.004;23.088;2023-03-08T06:20:54;15.38;;;6.95;;
39728;SDS011;25402;42.004;23.088;2023-03-08T06:23:29;20.15;;;6.88;;
39728;SDS011;25402;42.004;23.088;2023-03-08T06:25:56;20.67;;;7.93;;
39728;SDS011;25402;42.004;23.088;2023-03-08T06:28:23;14.20;;;7.28;;
39728;SDS011;25402;42.004;23.088;2023-03-08T06:30:50;14.55;;;7.22;;
39728;SDS011;25402;42.004;23.088;2023-03-08T06:33:18;18.33;;;6.97;;
39728;SDS011;25402;42.004;23.088;2023-03-08T06:35:53;18.05;;;7.20;;
39728;SDS011;25402;42.004;23.088;2023-03-08T06:38:20;16.27;;;6.45;;
39728;SDS011;25402;42.004;23.088;2023-03-08T06:40:49;14.52;;;6.72;;
39728;SDS011;25402;42.004;23.088;2023-03-08T06:43:15;17.85;;;6.68;;
39728;SDS011;25402;42.004;23.088;2023-03-08T06:45:42;13.98;;;5.93;;
39728;SDS011;25402;42.004;23.088;2023-03-08T06:48:09;16.15;;;6.43;;
39728;SDS011;25402;42.004;23.088;2023-03-08T06:50:35;15.50;;;6.20;;
39728;SDS011;25402;42.004;23.088;2023-03-08T06:53:02;14.25;;;6.40;;
39728;SDS011;25402;42.004;23.088;2023-03-08T06:55:29;17.10;;;5.80;;
39728;SDS011;25402;42.004;23.088;2023-03-08T06:57:57;15.13;;;6.85;;
39728;SDS011;25402;42.004;23.088;2023-03-08T07:00:23;20.85;;;6.50;;
39728;SDS011;25402;42.004;23.088;2023-03-08T07:02:50;18.27;;;7.55;;
39728;SDS011;25402;42.004;23.088;2023-03-08T07:05:17;24.48;;;7.85;;
39728;SDS011;25402;42.004;23.088;2023-03-08T07:07:44;20.42;;;6.88;;
39728;SDS011;25402;42.004;23.088;2023-03-08T07:10:11;28.20;;;7.38;;
39728;SDS011;25402;42.004;23.088;2023-03-08T07:12:39;16.77;;;6.85;;
39728;SDS011;25402;42.004;23.088;2023-03-08T07:15:09;16.63;;;7.03;;
39728;SDS011;25402;42.004;23.088;2023-03-08T07:17:38;23.50;;;6.68;;
39728;SDS011;25402;42.004;23.088;2023-03-08T07:20:05;26.08;;;7.10;;
39728;SDS011;25402;42.004;23.088;2023-03-08T07:22:32;35.13;;;6.90;;
39728;SDS011;25402;42.004;23.088;2023-03-08T07:24:59;27.67;;;6.95;;
39728;SDS011;25402;42.004;23.088;2023-03-08T07:27:26;39.42;;;7.82;;
39728;SDS011;25402;42.004;23.088;2023-03-08T07:29:52;39.22;;;6.82;;
39728;SDS011;25402;42.004;23.088;2023-03-08T07:32:20;23.95;;;6.57;;
39728;SDS011;25402;42.004;23.088;2023-03-08T07:34:52;30.60;;;7.25;;
39728;SDS011;25402;42.004;23.088;2023-03-08T07:37:19;19.00;;;5.60;;
39728;SDS011;25402;42.004;23.088;2023-03-08T07:39:46;22.92;;;6.63;;
39728;SDS011;25402;42.004;23.088;2023-03-08T07:42:12;18.85;;;7.85;;
39728;SDS011;25402;42.004;23.088;2023-03-08T07:44:39;18.65;;;7.30;;
39728;SDS011;25402;42.004;23.088;2023-03-08T07:47:05;19.02;;;6.57;;
39728;SDS011;25402;42.004;23.088;2023-03-08T07:49:34;22.05;;;5.88;;
39728;SDS011;25402;42.004;23.088;2023-03-08T07:52:00;19.50;;;5.90;;
39728;SDS011;25402;42.004;23.088;2023-03-08T07:54:27;18.38;;;5.63;;
39728;SDS011;25402;42.004;23.088;2023-03-08T07:56:54;13.85;;;6.32;;
39728;SDS011;25402;42.004;23.088;2023-03-08T07:59:21;12.07;;;6.45;;
39728;SDS011;25402;42.004;23.088;2023-03-08T08:01:48;19.05;;;6.53;;
39728;SDS011;25402;42.004;23.088;2023-03-08T08:04:15;21.75;;;8.68;;
39728;SDS011;25402;42.004;23.088;2023-03-08T08:06:44;23.08;;;10.57;;
39728;SDS011;25402;42.004;23.088;2023-03-08T08:09:11;28.02;;;13.80;;
39728;SDS011;25402;42.004;23.088;2023-03-08T08:11:38;42.78;;;19.70;;
39728;SDS011;25402;42.004;23.088;2023-03-08T08:14:05;29.15;;;13.35;;
39728;SDS011;25402;42.004;23.088;2023-03-08T08:16:33;19.80;;;9.48;;
39728;SDS011;25402;42.004;23.088;2023-03-08T08:19:00;16.92;;;8.32;;
39728;SDS011;25402;42.004;23.088;2023-03-08T08:21:41;15.70;;;8.13;;
39728;SDS011;25402;42.004;23.088;2023-03-08T08:24:08;18.55;;;8.35;;
39728;SDS011;25402;42.004;23.088;2023-03-08T08:26:34;20.10;;;8.75;;
39728;SDS011;25402;42.004;23.088;2023-03-08T08:29:01;103.63;;;12.50;;
39728;SDS011;25402;42.004;23.088;2023-03-08T08:31:28;19.10;;;7.53;;
39728;SDS011;25402;42.004;23.088;2023-03-08T08:33:55;17.67;;;7.28;;
39728;SDS011;25402;42.004;23.088;2023-03-08T08:36:23;28.65;;;8.00;;
39728;SDS011;25402;42.004;23.088;2023-03-08T08:38:51;24.55;;;6.50;;
39728;SDS011;25402;42.004;23.088;2023-03-08T08:41:18;10.65;;;4.20;;
39728;SDS011;25402;42.004;23.088;2023-03-08T08:43:46;10.00;;;4.15;;
39728;SDS011;25402;42.004;23.088;2023-03-08T08:46:13;13.80;;;5.47;;
39728;SDS011;25402;42.004;23.088;2023-03-08T08:48:40;9.00;;;5.35;;
39728;SDS011;25402;42.004;23.088;2023-03-08T08:51:10;12.05;;;5.53;;
39728;SDS011;25402;42.004;23.088;2023-03-08T08:53:37;12.52;;;4.97;;
39728;SDS011;25402;42.004;23.088;2023-03-08T08:56:11;14.43;;;5.22;;
39728;SDS011;25402;42.004;23.088;2023-03-08T08:58:39;8.07;;;4.65;;
39728;SDS011;25402;42.004;23.088;2023-03-08T09:01:11;27.15;;;6.32;;
39728;SDS011;25402;42.004;23.088;2023-03-08T09:03:39;16.13;;;4.97;;
39728;SDS011;25402;42.004;23.088;2023-03-08T09:06:06;19.88;;;5.40;;
39728;SDS011;25402;42.004;23.088;2023-03-08T09:08:32;8.48;;;5.18;;
39728;SDS011;25402;42.004;23.088;2023-03-08T09:11:01;15.10;;;5.63;;
39728;SDS011;25402;42.004;23.088;2023-03-08T09:13:29;11.45;;;5.65;;
39728;SDS011;25402;42.004;23.088;2023-03-08T09:15:55;15.82;;;5.72;;
39728;SDS011;25402;42.004;23.088;2023-03-08T09:18:22;17.63;;;6.47;;
39728;SDS011;25402;42.004;23.088;2023-03-08T09:20:49;15.73;;;6.35;;
39728;SDS011;25402;42.004;23.088;2023-03-08T09:23:16;30.65;;;7.25;;
39728;SDS011;25402;42.004;23.088;2023-03-08T09:25:42;16.13;;;5.93;;
39728;SDS011;25402;42.004;23.088;2023-03-08T09:28:09;25.17;;;6.47;;
39728;SDS011;25402;42.004;23.088;2023-03-08T09:30:41;17.15;;;6.28;;
39728;SDS011;25402;42.004;23.088;2023-03-08T09:33:08;40.60;;;7.05;;
39728;SDS011;25402;42.004;23.088;2023-03-08T09:35:36;17.02;;;5.53;;
39728;SDS011;25402;42.004;23.088;2023-03-08T09:38:03;11.85;;;5.20;;
39728;SDS011;25402;42.004;23.088;2023-03-08T09:40:29;16.48;;;5.18;;
39728;SDS011;25402;42.004;23.088;2023-03-08T09:43:00;10.75;;;5.07;;
39728;SDS011;25402;42.004;23.088;2023-03-08T09:45:29;11.30;;;5.00;;
39728;SDS011;25402;42.004;23.088;2023-03-08T09:47:59;12.82;;;5.00;;
39728;SDS011;25402;42.004;23.088;2023-03-08T09:50:33;10.05;;;5.10;;
39728;SDS011;25402;42.004;23.088;2023-03-08T09:53:03;10.82;;;4.72;;
39728;SDS011;25402;42.004;23.088;2023-03-08T09:55:31;11.93;;;5.22;;
39728;SDS011;25402;42.004;23.088;2023-03-08T09:57:59;13.93;;;4.95;;
39728;SDS011;25402;42.004;23.088;2023-03-08T10:00:28;13.82;;;5.55;;
39728;SDS011;25402;42.004;23.088;2023-03-08T10:03:14;10.23;;;4.65;;
39728;SDS011;25402;42.004;23.088;2023-03-08T10:05:47;7.40;;;3.70;;
39728;SDS011;25402;42.004;23.088;2023-03-08T10:08:19;9.15;;;3.60;;
39728;SDS011;25402;42.004;23.088;2023-03-08T10:10:50;7.05;;;3.40;;
39728;SDS011;25402;42.004;23.088;2023-03-08T10:13:29;6.03;;;3.42;;
39728;SDS011;25402;42.004;23.088;2023-03-08T10:16:01;8.48;;;3.40;;
39728;SDS011;25402;42.004;23.088;2023-03-08T10:18:33;6.47;;;2.70;;
39728;SDS011;25402;42.004;23.088;2023-03-08T10:21:00;4.70;;;2.28;;
39728;SDS011;25402;42.004;23.088;2023-03-08T10:23:30;2.17;;;1.60;;
39728;SDS011;25402;42.004;23.088;2023-03-08T10:25:58;4.03;;;2.67;;
39728;SDS011;25402;42.004;23.088;2023-03-08T10:28:25;3.33;;;2.00;;
39728;SDS011;25402;42.004;23.088;2023-03-08T10:30:53;3.50;;;2.03;;
39728;SDS011;25402;42.004;23.088;2023-03-08T10:33:21;12.90;;;4.57;;
39728;SDS011;25402;42.004;23.088;2023-03-08T10:35:54;2.28;;;1.63;;
39728;SDS011;25402;42.004;23.088;2023-03-08T10:38:21;6.43;;;1.60;;
39728;SDS011;25402;42.004;23.088;2023-03-08T10:40:55;2.17;;;1.48;;
39728;SDS011;25402;42.004;23.088;2023-03-08T10:43:24;4.20;;;1.67;;
39728;SDS011;25402;42.004;23.088;2023-03-08T10:45:59;4.80;;;1.90;;
39728;SDS011;25402;42.004;23.088;2023-03-08T10:48:26;6.47;;;2.40;;
39728;SDS011;25402;42.004;23.088;2023-03-08T10:51:01;3.63;;;1.70;;
39728;SDS011;25402;42.004;23.088;2023-03-08T10:53:28;1.92;;;1.30;;
39728;SDS011;25402;42.004;23.088;2023-03-08T10:55:55;4.05;;;1.40;;
39728;SDS011;25402;42.004;23.088;2023-03-08T10:58:25;4.68;;;1.92;;
39728;SDS011;25402;42.004;23.088;2023-03-08T11:00:53;2.78;;;1.35;;
39728;SDS011;25402;42.004;23.088;2023-03-08T11:03:21;3.80;;;1.60;;
39728;SDS011;25402;42.004;23.088;2023-03-08T11:05:52;2.95;;;1.38;;
39728;SDS011;25402;42.004;23.088;2023-03-08T11:08:21;4.53;;;1.70;;
39728;SDS011;25402;42.004;23.088;2023-03-08T11:10:58;2.38;;;1.50;;
39728;SDS011;25402;42.004;23.088;2023-03-08T11:13:27;3.00;;;1.73;;
39728;SDS011;25402;42.004;23.088;2023-03-08T11:15:57;1.80;;;1.13;;
39728;SDS011;25402;42.004;23.088;2023-03-08T11:18:27;36.67;;;2.75;;
39728;SDS011;25402;42.004;23.088;2023-03-08T11:20:58;7.03;;;1.77;;
39728;SDS011;25402;42.004;23.088;2023-03-08T11:23:29;2.22;;;1.50;;
39728;SDS011;25402;42.004;23.088;2023-03-08T11:25:58;2.58;;;1.70;;
39728;SDS011;25402;42.004;23.088;2023-03-08T11:28:38;4.57;;;1.60;;
39728;SDS011;25402;42.004;23.088;2023-03-08T11:31:13;17.00;;;2.40;;
39728;SDS011;25402;42.004;23.088;2023-03-08T11:33:56;51.35;;;4.00;;
39728;SDS011;25402;42.004;23.088;2023-03-08T11:36:28;45.35;;;3.20;;
39728;SDS011;25402;42.004;23.088;2023-03-08T11:38:58;8.98;;;2.05;;
39728;SDS011;25402;42.004;23.088;2023-03-08T11:41:30;7.60;;;1.80;;
39728;SDS011;25402;42.004;23.088;2023-03-08T11:44:06;39.08;;;2.38;;
39728;SDS011;25402;42.004;23.088;2023-03-08T11:46:38;8.27;;;1.50;;
39728;SDS011;25402;42.004;23.088;2023-03-08T11:51:49;3.20;;;1.58;;
39728;SDS011;25402;42.004;23.088;2023-03-08T11:54:23;5.63;;;1.65;;
39728;SDS011;25402;42.004;23.088;2023-03-08T11:56:56;1.70;;;1.42;;
39728;SDS011;25402;42.004;23.088;2023-03-08T11:59:27;2.80;;;1.60;;
39728;SDS011;25402;42.004;23.088;2023-03-08T12:01:56;60.50;;;4.30;;
39728;SDS011;25402;42.004;23.088;2023-03-08T12:04:26;4.93;;;1.58;;
39728;SDS011;25402;42.004;23.088;2023-03-08T12:06:54;2.92;;;1.30;;
39728;SDS011;25402;42.004;23.088;2023-03-08T12:09:24;41.72;;;3.50;;
39728;SDS011;25402;42.004;23.088;2023-03-08T12:11:52;2.75;;;1.70;;
39728;SDS011;25402;42.004;23.088;2023-03-08T12:14:23;4.85;;;2.00;;
39728;SDS011;25402;42.004;23.088;2023-03-08T12:16:53;4.57;;;1.52;;
39728;SDS011;25402;42.004;23.088;2023-03-08T12:19:28;6.35;;;2.22;;
39728;SDS011;25402;42.004;23.088;2023-03-08T12:21:59;3.08;;;1.70;;
39728;SDS011;25402;42.004;23.088;2023-03-08T12:24:34;4.85;;;1.98;;
39728;SDS011;25402;42.004;23.088;2023-03-08T12:27:04;4.38;;;1.52;;
39728;SDS011;25402;42.004;23.088;2023-03-08T12:29:33;2.13;;;1.38;;
39728;SDS011;25402;42.004;23.088;2023-03-08T12:32:01;2.65;;;1.50;;
39728;SDS011;25402;42.004;23.088;2023-03-08T12:34:35;5.32;;;1.30;;
39728;SDS011;25402;42.004;23.088;2023-03-08T12:37:02;3.45;;;1.75;;
39728;SDS011;25402;42.004;23.088;2023-03-08T12:39:30;3.00;;;1.30;;
39728;SDS011;25402;42.004;23.088;2023-03-08T12:42:14;1.80;;;1.50;;
39728;SDS011;25402;42.004;23.088;2023-03-08T12:44:41;3.47;;;1.45;;
39728;SDS011;25402;42.004;23.088;2023-03-08T12:47:17;3.30;;;1.80;;
39728;SDS011;25402;42.004;23.088;2023-03-08T12:49:46;5.13;;;1.80;;
39728;SDS011;25402;42.004;23.088;2023-03-08T12:52:22;3.00;;;1.63;;
39728;SDS011;25402;42.004;23.088;2023-03-08T12:54:54;19.23;;;1.95;;
39728;SDS011;25402;42.004;23.088;2023-03-08T12:57:23;2.92;;;1.70;;
39728;SDS011;25402;42.004;23.088;2023-03-08T12:59:54;1.95;;;1.30;;
39728;SDS011;25402;42.004;23.088;2023-03-08T13:02:30;3.60;;;1.40;;
39728;SDS011;25402;42.004;23.088;2023-03-08T13:05:01;4.88;;;2.08;;
39728;SDS011;25402;42.004;23.088;2023-03-08T13:07:30;5.38;;;3.45;;
39728;SDS011;25402;42.004;23.088;2023-03-08T13:09:58;5.38;;;1.50;;
39728;SDS011;25402;42.004;23.088;2023-03-08T13:12:40;4.30;;;1.65;;
39728;SDS011;25402;42.004;23.088;2023-03-08T13:15:21;5.35;;;1.30;;
39728;SDS011;25402;42.004;23.088;2023-03-08T13:17:49;5.13;;;1.85;;
39728;SDS011;25402;42.004;23.088;2023-03-08T13:20:17;10.73;;;1.70;;
39728;SDS011;25402;42.004;23.088;2023-03-08T13:22:48;3.08;;;1.60;;
39728;SDS011;25402;42.004;23.088;2023-03-08T13:25:18;5.70;;;1.48;;
39728;SDS011;25402;42.004;23.088;2023-03-08T13:27:49;3.83;;;1.60;;
39728;SDS011;25402;42.004;23.088;2023-03-08T13:30:18;16.40;;;2.42;;
39728;SDS011;25402;42.004;23.088;2023-03-08T13:32:47;5.03;;;1.88;;
39728;SDS011;25402;42.004;23.088;2023-03-08T13:35:15;22.95;;;2.78;;
39728;SDS011;25402;42.004;23.088;2023-03-08T13:37:42;3.25;;;1.65;;
39728;SDS011;25402;42.004;23.088;2023-03-08T13:40:17;16.77;;;2.33;;
39728;SDS011;25402;42.004;23.088;2023-03-08T13:42:57;10.43;;;2.70;;
39728;SDS011;25402;42.004;23.088;2023-03-08T13:45:24;8.18;;;2.42;;
39728;SDS011;25402;42.004;23.088;2023-03-08T13:47:51;5.93;;;1.60;;
39728;SDS011;25402;42.004;23.088;2023-03-08T13:50:19;5.97;;;2.40;;
39728;SDS011;25402;42.004;23.088;2023-03-08T13:52:46;60.90;;;4.10;;
39728;SDS011;25402;42.004;23.088;2023-03-08T13:55:15;18.73;;;2.63;;
39728;SDS011;25402;42.004;23.088;2023-03-08T13:57:46;4.55;;;2.08;;
39728;SDS011;25402;42.004;23.088;2023-03-08T14:00:25;2.75;;;1.90;;
39728;SDS011;25402;42.004;23.088;2023-03-08T14:02:53;13.77;;;2.53;;
39728;SDS011;25402;42.004;23.088;2023-03-08T14:05:20;9.30;;;2.28;;
39728;SDS011;25402;42.004;23.088;2023-03-08T14:07:54;18.70;;;2.40;;
39728;SDS011;25402;42.004;23.088;2023-03-08T14:10:21;6.88;;;1.98;;
39728;SDS011;25402;42.004;23.088;2023-03-08T14:12:51;6.60;;;1.90;;
39728;SDS011;25402;42.004;23.088;2023-03-08T14:15:18;3.28;;;2.03;;
39728;SDS011;25402;42.004;23.088;2023-03-08T14:17:47;4.35;;;2.10;;
39728;SDS011;25402;42.004;23.088;2023-03-08T14:20:16;3.20;;;2.30;;
39728;SDS011;25402;42.004;23.088;2023-03-08T14:22:49;6.30;;;2.45;;
39728;SDS011;25402;42.004;23.088;2023-03-08T14:25:20;5.13;;;2.47;;
39728;SDS011;25402;42.004;23.088;2023-03-08T14:27:47;24.13;;;2.67;;
39728;SDS011;25402;42.004;23.088;2023-03-08T14:30:18;6.05;;;2.53;;
39728;SDS011;25402;42.004;23.088;2023-03-08T14:32:58;2.88;;;1.80;;
39728;SDS011;25402;42.004;23.088;2023-03-08T14:35:26;6.82;;;2.33;;
39728;SDS011;25402;42.004;23.088;2023-03-08T14:37:54;7.13;;;2.35;;
39728;SDS011;25402;42.004;23.088;2023-03-08T14:40:26;9.45;;;2.70;;